createdAt,value
2022-08-17T00:01:52.745Z,73.75
2022-08-17T00:04:22.030Z,73.32
2022-08-17T00:06:53.272Z,75.72
2022-08-17T00:09:23.902Z,75.57
2022-08-17T00:12:42.083Z,75.45
2022-08-17T00:14:40.544Z,72.03
2022-08-17T00:17:08.800Z,71.55
2022-08-17T00:19:36.963Z,69.50
2022-08-17T00:22:32.061Z,71.28
2022-08-17T00:24:55.745Z,70.28
2022-08-17T00:27:24.338Z,70.63
2022-08-17T00:29:53.305Z,70.90
2022-08-17T00:33:12.355Z,71.88
2022-08-17T00:35:13.091Z,70.97
2022-08-17T00:37:43.060Z,69.53
2022-08-17T00:40:15.247Z,71.07
2022-08-17T00:42:46.501Z,72.15
2022-08-17T00:45:18.431Z,75.00
2022-08-17T00:47:46.937Z,75.72
2022-08-17T00:50:20.246Z,76.95
2022-08-17T00:52:56.010Z,78.00
2022-08-17T00:55:25.824Z,77.32
2022-08-17T00:57:59.548Z,77.25
2022-08-17T01:00:32.895Z,75.53
2022-08-17T01:03:07.756Z,76.10
2022-08-17T01:05:38.860Z,77.13
2022-08-17T01:08:16.727Z,73.55
2022-08-17T01:10:59.865Z,75.72
2022-08-17T01:13:39.758Z,74.65
2022-08-17T01:16:16.037Z,75.88
2022-08-17T01:18:47.045Z,75.57
2022-08-17T01:21:24.324Z,72.53
2022-08-17T01:23:54.155Z,71.25
2022-08-17T01:26:23.668Z,72.32
2022-08-17T01:28:55.423Z,71.88
2022-08-17T01:31:27.910Z,70.15
2022-08-17T01:33:57.478Z,71.78
2022-08-17T01:36:25.947Z,71.05
2022-08-17T01:38:58.272Z,71.90
2022-08-17T01:41:27.113Z,70.55
2022-08-17T01:43:58.806Z,72.03
2022-08-17T01:46:31.011Z,69.78
2022-08-17T01:49:00.348Z,71.28
2022-08-17T01:51:32.859Z,68.15
2022-08-17T01:54:07.522Z,70.90
2022-08-17T01:56:40.263Z,71.00
2022-08-17T01:59:08.844Z,72.47
2022-08-17T02:01:38.371Z,70.60
2022-08-17T02:04:09.073Z,67.03
2022-08-17T02:06:42.764Z,68.25
2022-08-17T02:09:16.887Z,60.47
2022-08-17T07:02:29.519Z,46.22
2022-08-17T07:16:01.149Z,42.92
2022-08-17T07:18:33.225Z,40.20
2022-08-17T07:21:19.194Z,40.03
2022-08-17T07:24:05.272Z,39.42
2022-08-17T07:26:33.758Z,40.63
2022-08-17T07:29:03.439Z,40.63
2022-08-17T07:31:34.244Z,37.42
2022-08-17T07:34:14.789Z,35.97
2022-08-17T07:36:43.320Z,36.47
2022-08-17T07:39:12.166Z,38.67
2022-08-17T07:41:58.680Z,38.67
2022-08-17T07:44:28.356Z,39.63
2022-08-17T07:47:14.515Z,39.08
2022-08-17T07:49:47.289Z,36.90
2022-08-17T07:52:51.801Z,39.53
2022-08-17T07:55:35.090Z,38.90
2022-08-17T07:58:03.719Z,38.10
2022-08-17T08:00:33.748Z,38.70
2022-08-17T08:03:27.143Z,37.42
2022-08-17T08:06:02.133Z,36.10
2022-08-17T08:08:35.752Z,37.13
2022-08-17T08:11:10.577Z,37.50
2022-08-17T08:13:43.684Z,38.08
2022-08-17T08:16:25.093Z,35.00
2022-08-17T08:18:57.716Z,34.40
2022-08-17T08:21:43.856Z,30.00
2022-08-17T08:24:38.551Z,30.83
2022-08-17T08:27:25.435Z,31.33
2022-08-17T08:30:05.237Z,30.80
2022-08-17T08:32:57.859Z,29.88
2022-08-17T08:35:33.855Z,30.23
2022-08-17T08:38:17.155Z,27.55
2022-08-17T08:41:00.926Z,28.52
2022-08-17T08:43:39.766Z,29.48
2022-08-17T08:46:23.054Z,28.55
2022-08-17T08:49:59.042Z,28.40
2022-08-17T08:52:34.118Z,27.20
2022-08-17T08:55:12.687Z,26.52
2022-08-17T08:57:51.107Z,28.67
2022-08-17T09:00:23.791Z,28.63
2022-08-17T09:03:43.804Z,27.08
2022-08-17T09:06:39.377Z,28.35
2022-08-17T09:09:24.535Z,28.55
2022-08-17T09:12:06.767Z,28.05
2022-08-17T09:14:44.953Z,27.35
2022-08-17T09:17:20.774Z,26.25
2022-08-17T09:19:57.479Z,27.50
2022-08-17T09:22:33.939Z,28.27
2022-08-17T09:25:10.641Z,29.70
2022-08-17T09:27:52.453Z,29.35
2022-08-17T09:30:23.796Z,28.58
2022-08-17T09:32:58.894Z,26.05
2022-08-17T09:35:37.183Z,26.42
2022-08-17T09:38:18.488Z,24.73
2022-08-17T09:40:54.515Z,24.02
2022-08-17T09:43:33.640Z,23.92
2022-08-17T09:46:06.954Z,24.20
2022-08-17T09:48:43.542Z,24.83
2022-08-17T09:51:20.988Z,23.92
2022-08-17T09:53:49.883Z,22.48
2022-08-17T09:56:46.013Z,20.42
2022-08-17T09:59:38.707Z,19.50
2022-08-17T10:02:39.603Z,17.45
2022-08-17T10:05:15.278Z,16.30
2022-08-17T10:07:49.585Z,14.45
2022-08-17T10:10:24.932Z,14.63
2022-08-17T10:13:04.204Z,14.82
2022-08-17T10:15:44.420Z,18.00
2022-08-17T10:18:32.021Z,15.25
2022-08-17T10:21:25.482Z,13.40
2022-08-17T10:24:24.688Z,13.20
2022-08-17T10:26:57.254Z,13.10
2022-08-17T10:29:46.199Z,13.85
2022-08-17T10:32:32.681Z,13.77
2022-08-17T10:35:42.452Z,15.48
2022-08-17T10:38:47.935Z,15.98
2022-08-17T10:41:38.199Z,18.13
2022-08-17T10:44:40.424Z,15.82
2022-08-17T10:47:11.783Z,16.15
2022-08-17T10:49:47.832Z,15.60
2022-08-17T10:52:51.843Z,16.67
2022-08-17T10:55:21.379Z,17.73
2022-08-17T10:57:51.556Z,18.67
2022-08-17T11:01:05.797Z,19.25
2022-08-17T11:03:35.430Z,19.45
2022-08-17T11:06:17.537Z,20.23
2022-08-17T11:12:19.792Z,20.45
2022-08-17T11:15:16.606Z,22.58
2022-08-17T11:18:09.758Z,22.15
2022-08-17T11:24:57.735Z,24.65
2022-08-17T11:34:15.596Z,29.55
2022-08-17T11:44:19.264Z,31.40
2022-08-17T11:50:16.030Z,30.55
2022-08-17T11:56:49.174Z,33.38
2022-08-17T14:29:28.443Z,43.45
2022-08-17T14:32:05.390Z,43.92
2022-08-17T14:38:16.490Z,46.15
2022-08-17T14:40:46.245Z,44.72
2022-08-17T14:43:18.738Z,46.40
2022-08-17T14:45:47.624Z,42.33
2022-08-17T14:48:38.572Z,44.53
2022-08-17T14:51:07.720Z,45.88
2022-08-17T14:53:36.544Z,45.00
2022-08-17T14:56:05.704Z,43.47
2022-08-17T14:58:34.099Z,44.20
2022-08-17T15:01:02.841Z,43.58
2022-08-17T15:06:36.285Z,42.47
2022-08-17T15:09:05.374Z,42.00
2022-08-17T15:11:34.635Z,42.80
2022-08-17T15:14:03.412Z,41.95
2022-08-17T15:16:36.034Z,40.55
2022-08-17T15:19:05.936Z,41.25
2022-08-17T15:21:37.597Z,43.55
2022-08-17T15:24:07.299Z,41.70
2022-08-17T15:26:36.835Z,41.83
2022-08-17T15:29:05.389Z,41.42
2022-08-17T15:31:35.822Z,42.50
2022-08-17T15:34:05.403Z,41.83
2022-08-17T15:36:38.219Z,41.58
2022-08-17T15:39:11.411Z,43.65
2022-08-17T15:41:39.771Z,43.35
2022-08-17T15:44:08.422Z,41.90
2022-08-17T15:46:38.672Z,41.60
2022-08-17T15:49:08.664Z,44.28
2022-08-17T15:51:39.068Z,41.58
2022-08-17T15:54:19.046Z,41.30
2022-08-17T15:56:51.346Z,41.38
2022-08-17T15:59:19.819Z,40.13
2022-08-17T16:03:15.225Z,40.78
2022-08-17T16:04:38.015Z,40.40
2022-08-17T16:07:12.986Z,39.45
2022-08-17T16:09:42.145Z,40.42
2022-08-17T16:12:13.301Z,39.42
2022-08-17T16:14:41.653Z,38.35
2022-08-17T16:17:38.594Z,37.60
2022-08-17T16:19:58.808Z,39.30
2022-08-17T16:22:35.917Z,40.13
2022-08-17T16:25:10.515Z,40.03
2022-08-17T16:27:39.600Z,39.92
2022-08-17T16:30:16.946Z,40.75
2022-08-17T16:32:46.767Z,39.83
2022-08-17T16:35:18.196Z,39.85
2022-08-17T16:37:48.230Z,40.45
2022-08-17T16:40:18.609Z,39.42
2022-08-17T16:42:49.742Z,39.53
2022-08-17T16:45:21.797Z,39.33
2022-08-17T16:47:50.935Z,38.50
2022-08-17T16:50:22.805Z,39.25
2022-08-17T16:52:52.982Z,40.33
2022-08-17T16:55:24.129Z,39.40
2022-08-17T16:57:52.425Z,38.83
2022-08-17T17:00:21.534Z,39.58
2022-08-17T17:02:51.857Z,38.70
2022-08-17T17:05:51.324Z,39.42
2022-08-17T17:08:30.579Z,39.70
2022-08-17T17:11:04.961Z,38.67
2022-08-17T17:13:45.193Z,38.63
2022-08-17T17:25:39.948Z,38.55
2022-08-17T17:28:38.928Z,37.92
2022-08-17T17:31:14.929Z,39.85
2022-08-17T17:36:54.725Z,40.70
